Time;durP1;ratioP1;P1;durP2;ratioP2;P2;SDS_P1;SDS_P2;PMS_P1;PMS_P2;Temp;Humidity;BMP_temperature;BMP_pressure;BME280_temperature;BME280_humidity;BME280_pressure;Samples;Min_cycle;Max_cycle;Signal;HPM_P1;HPM_P2
2023/10/07 00:01:40;;;;;;;;;14.50;11.00;;;;;;;;5096631;28;11375;-76
2023/10/07 00:04:09;;;;;;;;;13.50;11.00;;;;;;;;5090417;28;10964;-78
2023/10/07 00:06:37;;;;;;;;;15.25;12.25;;;;;;;;5065783;28;8746;-78
2023/10/07 00:09:10;;;;;;;;;15.25;13.75;;;;;;;;5083612;28;10875;-78
2023/10/07 00:11:35;;;;;;;;;18.50;12.50;;;;;;;;5083689;28;10787;-78
2023/10/07 00:14:02;;;;;;;;;15.00;13.75;;;;;;;;5064416;28;10609;-77
2023/10/07 00:16:28;;;;;;;;;14.25;11.25;;;;;;;;5099342;28;8798;-78
2023/10/07 00:18:54;;;;;;;;;13.00;12.00;;;;;;;;5064795;28;10777;-78
2023/10/07 00:21:27;;;;;;;;;13.00;11.00;;;;;;;;5065756;28;10031;-78
2023/10/07 00:23:53;;;;;;;;;14.50;12.00;;;;;;;;5064725;28;11365;-77
2023/10/07 00:26:18;;;;;;;;;17.00;13.75;;;;;;;;5083528;28;11037;-78
2023/10/07 00:28:51;;;;;;;;;15.50;12.00;;;;;;;;5083665;28;11031;-78
2023/10/07 00:31:22;;;;;;;;;16.25;13.00;;;;;;;;5083456;28;8833;-78
2023/10/07 00:39:08;;;;;;;;;12.75;10.75;;;;;;;;5082053;28;11005;-77
2023/10/07 00:41:58;;;;;;;;;14.50;11.75;;;;;;;;5083440;28;10920;-78
2023/10/07 00:44:22;;;;;;;;;9.00;9.00;;;;;;;;5074919;28;10980;-78
2023/10/07 00:46:55;;;;;;;;;13.00;9.00;;;;;;;;5062086;28;10864;-78
2023/10/07 00:49:22;;;;;;;;;11.25;10.00;;;;;;;;5063177;28;10719;-78
2023/10/07 00:51:49;;;;;;;;;14.00;12.50;;;;;;;;5062983;28;10991;-77
2023/10/07 00:57:07;;;;;;;;;16.00;14.00;;;;;;;;5062426;28;10778;-77
2023/10/07 00:59:34;;;;;;;;;13.25;11.00;;;;;;;;5063121;28;10848;-78
2023/10/07 01:02:00;;;;;;;;;13.00;13.00;;;;;;;;5084325;28;10791;-78
2023/10/07 01:04:28;;;;;;;;;9.50;8.50;;;;;;;;5098478;28;10823;-78
2023/10/07 01:07:03;;;;;;;;;11.00;8.75;;;;;;;;5082672;28;8825;-78
2023/10/07 01:09:29;;;;;;;;;11.50;11.25;;;;;;;;5081252;28;10808;-78
2023/10/07 01:11:57;;;;;;;;;11.00;10.00;;;;;;;;5081480;28;11043;-77
2023/10/07 01:14:33;;;;;;;;;9.25;8.75;;;;;;;;5082105;28;8848;-77
2023/10/07 01:17:00;;;;;;;;;16.25;13.50;;;;;;;;5081811;28;10852;-78
2023/10/07 01:19:30;;;;;;;;;15.25;11.75;;;;;;;;5082892;28;10590;-78
2023/10/07 01:22:08;;;;;;;;;14.25;12.00;;;;;;;;5064503;28;11061;-78
2023/10/07 01:27:07;;;;;;;;;15.75;11.25;;;;;;;;5082396;28;10661;-78
2023/10/07 01:29:34;;;;;;;;;14.50;10.25;;;;;;;;5082272;28;10871;-77
2023/10/07 01:32:00;;;;;;;;;10.25;9.00;;;;;;;;5064200;28;11106;-77
2023/10/07 01:34:34;;;;;;;;;13.50;12.25;;;;;;;;5082580;28;10907;-78
2023/10/07 01:37:00;;;;;;;;;12.25;10.50;;;;;;;;5082262;28;9732;-78
2023/10/07 01:39:27;;;;;;;;;17.50;12.75;;;;;;;;5081799;28;10755;-78
2023/10/07 01:41:52;;;;;;;;;10.50;10.50;;;;;;;;5082152;28;11303;-77
2023/10/07 01:44:24;;;;;;;;;12.50;11.00;;;;;;;;5054519;28;11602;-77
2023/10/07 01:46:55;;;;;;;;;13.50;9.25;;;;;;;;5062117;28;8773;-78
2023/10/07 01:49:21;;;;;;;;;12.00;8.50;;;;;;;;5060811;28;11248;-78
2023/10/07 01:51:47;;;;;;;;;15.75;8.75;;;;;;;;5062155;28;11032;-77
2023/10/07 01:54:12;;;;;;;;;10.50;10.50;;;;;;;;5061549;28;8765;-78
2023/10/07 01:56:38;;;;;;;;;15.25;10.00;;;;;;;;5062223;28;8784;-77
2023/10/07 01:59:17;;;;;;;;;13.25;11.50;;;;;;;;5061815;28;8767;-78
2023/10/07 02:01:46;;;;;;;;;20.25;12.00;;;;;;;;5082312;28;8727;-78
2023/10/07 02:04:18;;;;;;;;;21.50;12.25;;;;;;;;5082209;28;11432;-78
2023/10/07 02:06:54;;;;;;;;;8.25;7.00;;;;;;;;5081763;28;10901;-77
2023/10/07 02:09:26;;;;;;;;;13.00;11.50;;;;;;;;5081866;28;10870;-78
2023/10/07 02:11:55;;;;;;;;;13.50;11.25;;;;;;;;5081916;28;11098;-78
2023/10/07 02:14:24;;;;;;;;;15.75;11.50;;;;;;;;5096025;28;11015;-78
2023/10/07 02:16:50;;;;;;;;;15.00;11.25;;;;;;;;5081996;28;10747;-78
2023/10/07 02:19:26;;;;;;;;;11.25;11.25;;;;;;;;5097319;28;11656;-78
2023/10/07 02:21:52;;;;;;;;;13.75;10.25;;;;;;;;5082496;28;8755;-77
2023/10/07 02:24:21;;;;;;;;;11.75;9.25;;;;;;;;5066975;28;10801;-78
2023/10/07 02:26:53;;;;;;;;;16.75;11.25;;;;;;;;5085544;28;8770;-78
2023/10/07 02:29:19;;;;;;;;;16.75;11.00;;;;;;;;5100457;28;10820;-77
2023/10/07 02:31:44;;;;;;;;;14.00;7.50;;;;;;;;5083959;28;11060;-77
2023/10/07 02:34:21;;;;;;;;;10.25;9.25;;;;;;;;5085518;28;10920;-78
2023/10/07 02:36:52;;;;;;;;;12.00;10.75;;;;;;;;5097360;28;8760;-78
2023/10/07 02:39:24;;;;;;;;;12.25;10.75;;;;;;;;5065969;28;10765;-78
2023/10/07 02:41:50;;;;;;;;;12.75;11.25;;;;;;;;5066869;28;11116;-78
2023/10/07 02:44:26;;;;;;;;;10.75;7.25;;;;;;;;5077490;28;10622;-78
2023/10/07 02:46:54;;;;;;;;;15.00;13.25;;;;;;;;5080153;28;8839;-78
2023/10/07 02:49:20;;;;;;;;;13.75;12.75;;;;;;;;5064953;28;11036;-78
2023/10/07 02:51:47;;;;;;;;;13.50;9.25;;;;;;;;5046737;28;11169;-77
2023/10/07 02:54:22;;;;;;;;;11.50;9.75;;;;;;;;5064472;28;10740;-77
2023/10/07 02:59:35;;;;;;;;;17.00;11.75;;;;;;;;5064967;28;10582;-78
2023/10/07 03:05:14;;;;;;;;;14.25;12.50;;;;;;;;5104960;28;10891;-78
2023/10/07 03:08:01;;;;;;;;;15.00;13.25;;;;;;;;5065981;28;10903;-77
2023/10/07 03:10:45;;;;;;;;;16.00;13.25;;;;;;;;5066183;28;11057;-78
2023/10/07 03:13:15;;;;;;;;;15.00;13.75;;;;;;;;5083573;28;11223;-78
2023/10/07 03:15:44;;;;;;;;;21.00;13.50;;;;;;;;5084575;28;11209;-77
2023/10/07 03:18:21;;;;;;;;;12.75;12.50;;;;;;;;5084210;28;11064;-77
2023/10/07 03:20:59;;;;;;;;;11.50;8.50;;;;;;;;5084739;28;11114;-78
2023/10/07 03:23:26;;;;;;;;;13.75;13.00;;;;;;;;5071749;28;11344;-77
2023/10/07 03:28:20;;;;;;;;;16.25;11.75;;;;;;;;5084200;28;10925;-78
2023/10/07 03:30:47;;;;;;;;;9.50;7.75;;;;;;;;5099920;28;10984;-78
2023/10/07 03:33:15;;;;;;;;;13.50;11.50;;;;;;;;5084172;28;8781;-77
2023/10/07 03:38:25;;;;;;;;;15.50;12.50;;;;;;;;5083484;28;10845;-77
2023/10/07 03:40:54;;;;;;;;;13.00;12.00;;;;;;;;5065467;28;11336;-78
2023/10/07 03:43:19;;;;;;;;;12.25;10.00;;;;;;;;5083389;28;11437;-78
2023/10/07 03:45:45;;;;;;;;;15.00;12.75;;;;;;;;5064794;28;11002;-78
2023/10/07 03:48:23;;;;;;;;;10.75;10.25;;;;;;;;5063764;28;8809;-78
2023/10/07 03:50:48;;;;;;;;;12.50;11.75;;;;;;;;5080779;28;8714;-78
2023/10/07 03:53:15;;;;;;;;;21.25;13.50;;;;;;;;5104455;28;11344;-78
2023/10/07 03:55:40;;;;;;;;;12.00;12.00;;;;;;;;5103274;28;8741;-78
2023/10/07 03:58:06;;;;;;;;;11.75;9.75;;;;;;;;5103977;28;11276;-78
2023/10/07 04:00:35;;;;;;;;;12.50;10.75;;;;;;;;5103122;28;8772;-78
2023/10/07 04:03:07;;;;;;;;;12.75;12.50;;;;;;;;5104463;28;9693;-78
2023/10/07 04:05:35;;;;;;;;;14.25;10.25;;;;;;;;5104207;28;11063;-78
2023/10/07 04:08:02;;;;;;;;;10.25;8.00;;;;;;;;5104201;28;10848;-77
2023/10/07 04:10:45;;;;;;;;;16.00;11.75;;;;;;;;5101592;28;10998;-78
2023/10/07 04:13:24;;;;;;;;;13.50;9.25;;;;;;;;5075306;28;11448;-78
2023/10/07 04:15:52;;;;;;;;;16.50;12.75;;;;;;;;5078728;28;11135;-78
2023/10/07 04:18:18;;;;;;;;;12.25;10.50;;;;;;;;5062183;28;11332;-78
2023/10/07 04:23:21;;;;;;;;;13.25;8.25;;;;;;;;5063429;28;11144;-78
2023/10/07 04:25:47;;;;;;;;;12.75;12.00;;;;;;;;5062274;28;10766;-77
2023/10/07 04:28:16;;;;;;;;;13.00;11.75;;;;;;;;5063532;28;11069;-78
2023/10/07 04:30:46;;;;;;;;;13.25;10.50;;;;;;;;5063158;28;11001;-78
2023/10/07 04:33:13;;;;;;;;;12.00;11.50;;;;;;;;5063435;28;11340;-78
2023/10/07 04:35:38;;;;;;;;;14.75;11.75;;;;;;;;5063148;28;11023;-78
2023/10/07 04:38:28;;;;;;;;;9.00;9.00;;;;;;;;5066790;28;11213;-76
2023/10/07 04:43:50;;;;;;;;;9.00;8.00;;;;;;;;5079924;28;11356;-77
2023/10/07 04:46:28;;;;;;;;;19.75;13.75;;;;;;;;5082930;28;11895;-78
2023/10/07 04:48:57;;;;;;;;;11.50;11.25;;;;;;;;5051790;28;10830;-78
2023/10/07 04:53:57;;;;;;;;;14.75;11.75;;;;;;;;5077254;28;11395;-77
2023/10/07 04:56:25;;;;;;;;;13.00;11.75;;;;;;;;5093003;28;11480;-78
2023/10/07 04:58:52;;;;;;;;;10.75;8.75;;;;;;;;5082641;28;11123;-78
2023/10/07 05:01:36;;;;;;;;;13.00;12.25;;;;;;;;5100350;28;11095;-78
2023/10/07 05:04:05;;;;;;;;;6.25;5.00;;;;;;;;5084383;28;12162;-78
2023/10/07 05:06:33;;;;;;;;;21.00;14.25;;;;;;;;5083079;28;10714;-78
2023/10/07 05:08:59;;;;;;;;;12.25;11.50;;;;;;;;5081667;28;11393;-78
2023/10/07 05:11:26;;;;;;;;;18.50;14.00;;;;;;;;5082851;28;11082;-77
2023/10/07 05:13:51;;;;;;;;;10.50;9.00;;;;;;;;5081674;28;8715;-78
2023/10/07 05:16:17;;;;;;;;;13.00;12.00;;;;;;;;5083271;28;10880;-78
2023/10/07 05:18:42;;;;;;;;;15.50;12.00;;;;;;;;5067272;28;8867;-77
2023/10/07 05:21:08;;;;;;;;;16.50;9.25;;;;;;;;5062542;28;8757;-78
2023/10/07 05:23:34;;;;;;;;;12.25;11.25;;;;;;;;5098510;28;8788;-77
2023/10/07 05:26:09;;;;;;;;;12.50;9.25;;;;;;;;5101521;28;8789;-78
2023/10/07 05:28:34;;;;;;;;;14.50;12.25;;;;;;;;5102957;28;10925;-78
2023/10/07 05:31:03;;;;;;;;;16.00;12.00;;;;;;;;5102849;28;11015;-78
2023/10/07 05:33:32;;;;;;;;;14.75;12.50;;;;;;;;5089172;28;8847;-78
2023/10/07 05:36:08;;;;;;;;;14.00;12.75;;;;;;;;5082391;28;11179;-76
2023/10/07 05:38:35;;;;;;;;;11.75;11.50;;;;;;;;5075385;28;10990;-78
2023/10/07 05:41:01;;;;;;;;;16.00;12.75;;;;;;;;5082842;28;10763;-78
2023/10/07 05:43:27;;;;;;;;;15.50;13.25;;;;;;;;5081735;28;11167;-78
2023/10/07 05:45:52;;;;;;;;;13.50;11.50;;;;;;;;5062217;28;8899;-74
2023/10/07 05:48:17;;;;;;;;;12.50;9.75;;;;;;;;5061830;28;11025;-75
2023/10/07 05:50:42;;;;;;;;;14.75;13.25;;;;;;;;5069406;28;8913;-80
2023/10/07 05:53:08;;;;;;;;;16.75;10.00;;;;;;;;5082292;28;8809;-76
2023/10/07 05:55:33;;;;;;;;;15.75;12.00;;;;;;;;5082235;28;8908;-78
2023/10/07 05:57:59;;;;;;;;;18.00;13.75;;;;;;;;5086775;28;8836;-77
2023/10/07 06:00:25;;;;;;;;;13.25;12.00;;;;;;;;5079100;28;8849;-75
2023/10/07 06:02:52;;;;;;;;;19.25;12.25;;;;;;;;5109405;28;8693;-76
2023/10/07 06:05:20;;;;;;;;;14.00;10.25;;;;;;;;5108468;28;11372;-76
2023/10/07 06:07:45;;;;;;;;;14.25;13.00;;;;;;;;5093428;28;11493;-77
2023/10/07 06:10:11;;;;;;;;;19.75;14.50;;;;;;;;5068235;28;11988;-74
2023/10/07 06:12:36;;;;;;;;;14.50;12.50;;;;;;;;5077682;28;9672;-75
2023/10/07 06:15:04;;;;;;;;;12.75;11.25;;;;;;;;5088092;28;8774;-75
2023/10/07 06:17:33;;;;;;;;;17.00;12.25;;;;;;;;5086410;28;8739;-75
2023/10/07 06:19:58;;;;;;;;;14.75;12.25;;;;;;;;5087423;28;11446;-76
2023/10/07 06:22:24;;;;;;;;;15.25;11.25;;;;;;;;5088105;28;8779;-75
2023/10/07 06:24:52;;;;;;;;;17.25;14.50;;;;;;;;5083188;28;8800;-76
2023/10/07 06:27:21;;;;;;;;;14.75;12.75;;;;;;;;5085135;28;8782;-75
2023/10/07 06:29:48;;;;;;;;;17.00;13.00;;;;;;;;5106496;28;10944;-75
2023/10/07 06:32:23;;;;;;;;;12.25;12.25;;;;;;;;5095356;28;11250;-75
2023/10/07 06:34:51;;;;;;;;;16.25;13.25;;;;;;;;5090082;28;11037;-74
2023/10/07 06:37:17;;;;;;;;;13.25;11.75;;;;;;;;5104519;28;11315;-75
2023/10/07 06:39:43;;;;;;;;;13.00;10.00;;;;;;;;5087869;28;11328;-74
2023/10/07 06:42:10;;;;;;;;;15.25;13.00;;;;;;;;5088315;28;8747;-75
2023/10/07 06:44:35;;;;;;;;;20.00;15.75;;;;;;;;5077552;28;11103;-74
2023/10/07 06:47:02;;;;;;;;;12.00;10.00;;;;;;;;5095764;28;11243;-75
2023/10/07 06:49:28;;;;;;;;;15.50;12.75;;;;;;;;5096699;28;8827;-75
2023/10/07 06:51:53;;;;;;;;;21.00;17.50;;;;;;;;5094884;28;11502;-74
2023/10/07 06:54:23;;;;;;;;;13.00;13.00;;;;;;;;5088433;28;8821;-75
2023/10/07 06:56:50;;;;;;;;;19.00;14.25;;;;;;;;5104276;28;8737;-75
2023/10/07 06:59:16;;;;;;;;;24.75;17.00;;;;;;;;5094028;28;11430;-75
2023/10/07 07:04:10;;;;;;;;;22.00;16.50;;;;;;;;5097765;28;8784;-75
2023/10/07 07:06:42;;;;;;;;;19.25;16.50;;;;;;;;5071407;28;8798;-76
2023/10/07 07:11:59;;;;;;;;;17.50;13.00;;;;;;;;5094960;28;11387;-78
2023/10/07 07:14:28;;;;;;;;;17.00;15.50;;;;;;;;5062527;28;11068;-77
2023/10/07 07:16:57;;;;;;;;;20.75;16.00;;;;;;;;5064463;28;12192;-78
2023/10/07 07:19:23;;;;;;;;;19.75;17.00;;;;;;;;5063988;28;10919;-79
2023/10/07 07:21:49;;;;;;;;;22.50;19.25;;;;;;;;5064300;28;11316;-77
2023/10/07 07:24:15;;;;;;;;;19.75;18.50;;;;;;;;5103450;28;11349;-75
2023/10/07 07:26:50;;;;;;;;;23.75;16.75;;;;;;;;5104881;28;8776;-78
2023/10/07 07:29:18;;;;;;;;;17.50;15.25;;;;;;;;5105090;28;11187;-78
2023/10/07 07:31:46;;;;;;;;;21.75;18.25;;;;;;;;5104532;28;11321;-77
2023/10/07 07:34:22;;;;;;;;;22.00;17.75;;;;;;;;5104258;28;11264;-79
2023/10/07 07:36:56;;;;;;;;;21.25;16.00;;;;;;;;5095166;28;11270;-72
2023/10/07 07:39:22;;;;;;;;;22.00;15.25;;;;;;;;5083307;28;11100;-72
2023/10/07 07:42:32;;;;;;;;;23.00;19.75;;;;;;;;5088713;28;11244;-72
2023/10/07 07:44:37;;;;;;;;;15.50;15.25;;;;;;;;5074381;28;11078;-72
2023/10/07 07:47:05;;;;;;;;;20.75;16.50;;;;;;;;5083041;28;10859;-72
2023/10/07 07:49:32;;;;;;;;;20.75;17.75;;;;;;;;5088428;28;11142;-72
2023/10/07 07:52:01;;;;;;;;;17.25;17.25;;;;;;;;5083563;28;11339;-72
2023/10/07 07:54:26;;;;;;;;;17.25;15.25;;;;;;;;5086046;28;10888;-72
2023/10/07 07:56:54;;;;;;;;;12.50;11.25;;;;;;;;5104239;28;11033;-72
2023/10/07 07:59:19;;;;;;;;;17.25;16.25;;;;;;;;5082186;28;8769;-72
2023/10/07 08:01:50;;;;;;;;;17.25;16.50;;;;;;;;5069357;28;11384;-72
2023/10/07 08:04:37;;;;;;;;;17.75;17.75;;;;;;;;5072864;28;8860;-72
2023/10/07 08:07:06;;;;;;;;;21.75;16.00;;;;;;;;5089302;28;11172;-74
2023/10/07 08:09:36;;;;;;;;;16.00;16.00;;;;;;;;5086411;28;11048;-75
2023/10/07 08:12:01;;;;;;;;;21.50;18.25;;;;;;;;5082966;28;10991;-74
2023/10/07 08:14:27;;;;;;;;;23.50;17.75;;;;;;;;5070345;28;11132;-74
2023/10/07 08:16:52;;;;;;;;;27.75;17.00;;;;;;;;5076991;28;8879;-75
2023/10/07 08:19:20;;;;;;;;;15.00;14.00;;;;;;;;5082460;28;8809;-74
2023/10/07 08:21:51;;;;;;;;;16.50;13.25;;;;;;;;5082435;28;8811;-74
2023/10/07 08:24:17;;;;;;;;;18.50;16.00;;;;;;;;5075391;28;11119;-74
2023/10/07 08:26:48;;;;;;;;;17.00;15.00;;;;;;;;5083667;28;11666;-75
2023/10/07 08:29:31;;;;;;;;;21.50;17.00;;;;;;;;5068978;28;8748;-78
2023/10/07 08:31:58;;;;;;;;;19.25;15.25;;;;;;;;5072583;28;11097;-77
2023/10/07 08:34:32;;;;;;;;;15.50;13.00;;;;;;;;5083330;28;10955;-77
2023/10/07 08:37:00;;;;;;;;;17.00;13.00;;;;;;;;5081431;28;10832;-74
2023/10/07 08:39:27;;;;;;;;;15.50;14.00;;;;;;;;5080912;28;10812;-78
2023/10/07 08:41:52;;;;;;;;;19.00;14.75;;;;;;;;5066580;28;10867;-76
2023/10/07 08:44:20;;;;;;;;;17.00;12.00;;;;;;;;5080144;28;11156;-78
2023/10/07 08:46:52;;;;;;;;;15.50;9.75;;;;;;;;5092557;28;8861;-77
2023/10/07 08:49:25;;;;;;;;;18.50;13.25;;;;;;;;5085288;28;10799;-77
2023/10/07 08:51:52;;;;;;;;;13.25;12.00;;;;;;;;5080140;28;10932;-77
2023/10/07 08:54:17;;;;;;;;;16.75;12.00;;;;;;;;5095598;28;10893;-73
2023/10/07 08:56:50;;;;;;;;;17.50;14.00;;;;;;;;5091864;28;10839;-78
2023/10/07 08:59:15;;;;;;;;;16.00;11.00;;;;;;;;5091529;28;8772;-78
2023/10/07 09:01:42;;;;;;;;;11.50;9.50;;;;;;;;5079117;28;10820;-77
2023/10/07 09:04:07;;;;;;;;;13.25;12.00;;;;;;;;5091598;28;8781;-78
2023/10/07 09:06:38;;;;;;;;;16.25;14.00;;;;;;;;5096274;28;10746;-77
2023/10/07 09:09:06;;;;;;;;;21.25;15.75;;;;;;;;5052477;28;8908;-77
2023/10/07 09:11:32;;;;;;;;;14.75;13.00;;;;;;;;5076660;28;10711;-75
2023/10/07 09:14:03;;;;;;;;;14.75;13.50;;;;;;;;5082336;28;11639;-75
2023/10/07 09:16:32;;;;;;;;;13.25;12.00;;;;;;;;5085581;28;8797;-75
2023/10/07 09:18:59;;;;;;;;;18.25;16.00;;;;;;;;5082195;28;10547;-75
2023/10/07 09:21:33;;;;;;;;;14.75;14.00;;;;;;;;5082375;28;11904;-75
2023/10/07 09:24:02;;;;;;;;;19.75;14.00;;;;;;;;5061866;28;10664;-75
2023/10/07 09:26:33;;;;;;;;;12.75;11.50;;;;;;;;5066110;28;10562;-75
2023/10/07 09:28:59;;;;;;;;;14.50;11.75;;;;;;;;5086869;28;10612;-76
2023/10/07 09:31:27;;;;;;;;;13.50;11.50;;;;;;;;5102301;28;10785;-75
2023/10/07 09:33:55;;;;;;;;;12.25;11.25;;;;;;;;5083327;28;8735;-75
2023/10/07 09:38:49;;;;;;;;;11.25;10.50;;;;;;;;5083659;28;10602;-78
2023/10/07 09:41:24;;;;;;;;;14.75;14.00;;;;;;;;5075129;28;10763;-80
2023/10/07 09:43:56;;;;;;;;;16.25;12.75;;;;;;;;5067334;28;8746;-76
2023/10/07 09:46:25;;;;;;;;;18.00;13.75;;;;;;;;5077129;28;10543;-75
2023/10/07 09:48:56;;;;;;;;;13.25;10.25;;;;;;;;5069364;28;10464;-81
2023/10/07 09:51:28;;;;;;;;;11.00;10.00;;;;;;;;5082791;28;10511;-81
2023/10/07 09:54:16;;;;;;;;;14.50;10.75;;;;;;;;5082128;28;10027;-79
2023/10/07 09:56:59;;;;;;;;;12.00;9.00;;;;;;;;5086398;28;10501;-75
2023/10/07 09:59:43;;;;;;;;;9.00;8.00;;;;;;;;5073029;28;10021;-76
2023/10/07 10:02:31;;;;;;;;;14.00;9.00;;;;;;;;5092187;28;10620;-73
2023/10/07 10:05:12;;;;;;;;;10.25;6.00;;;;;;;;5088279;28;10400;-74
2023/10/07 10:07:40;;;;;;;;;13.25;11.00;;;;;;;;5080417;28;10178;-76
2023/10/07 10:10:13;;;;;;;;;14.75;11.00;;;;;;;;5081409;28;10523;-75
2023/10/07 10:17:53;;;;;;;;;10.75;6.75;;;;;;;;5079192;28;10182;-76
2023/10/07 10:20:27;;;;;;;;;11.00;6.25;;;;;;;;5078110;28;10034;-75
2023/10/07 10:22:53;;;;;;;;;6.00;6.00;;;;;;;;5084575;28;10330;-78
2023/10/07 10:25:39;;;;;;;;;8.50;5.00;;;;;;;;5080520;28;10011;-75
2023/10/07 10:28:07;;;;;;;;;7.25;6.00;;;;;;;;5084346;28;9945;-75
2023/10/07 10:30:33;;;;;;;;;13.50;7.75;;;;;;;;5063494;28;9964;-75
2023/10/07 10:33:00;;;;;;;;;6.25;3.00;;;;;;;;5081985;28;10382;-77
2023/10/07 10:35:26;;;;;;;;;4.75;4.75;;;;;;;;5073355;28;8777;-75
2023/10/07 10:37:57;;;;;;;;;10.50;6.00;;;;;;;;5078246;28;9978;-76
2023/10/07 10:40:23;;;;;;;;;5.50;4.50;;;;;;;;5068641;28;8805;-76
2023/10/07 10:42:49;;;;;;;;;6.75;5.00;;;;;;;;5061752;28;10029;-77
2023/10/07 10:45:19;;;;;;;;;4.50;4.50;;;;;;;;5083876;28;10222;-79
2023/10/07 10:47:50;;;;;;;;;4.00;4.00;;;;;;;;5065633;28;8892;-76
2023/10/07 10:50:17;;;;;;;;;5.75;3.75;;;;;;;;5068679;28;9793;-76
2023/10/07 10:52:54;;;;;;;;;6.75;3.75;;;;;;;;5081292;28;9973;-77
2023/10/07 10:55:22;;;;;;;;;3.75;3.00;;;;;;;;5085956;28;9638;-76
2023/10/07 10:57:50;;;;;;;;;10.33;4.67;;;;;;;;5057641;28;9748;-79
2023/10/07 11:00:22;;;;;;;;;10.25;6.75;;;;;;;;5083168;28;9480;-80
2023/10/07 11:02:52;;;;;;;;;4.25;3.25;;;;;;;;5081525;28;10070;-77
2023/10/07 11:05:18;;;;;;;;;3.75;3.75;;;;;;;;5081729;28;9766;-79
2023/10/07 11:07:46;;;;;;;;;5.50;5.50;;;;;;;;5060117;28;10578;-78
2023/10/07 11:10:12;;;;;;;;;3.75;3.75;;;;;;;;5061234;28;8882;-80
2023/10/07 11:12:38;;;;;;;;;7.25;5.25;;;;;;;;5063376;28;9885;-79
2023/10/07 11:15:07;;;;;;;;;8.00;6.00;;;;;;;;5088976;28;8785;-80
2023/10/07 11:17:37;;;;;;;;;7.00;4.50;;;;;;;;5065312;28;9900;-79
2023/10/07 11:20:03;;;;;;;;;4.50;4.00;;;;;;;;5082443;28;9503;-81
2023/10/07 11:22:37;;;;;;;;;7.25;7.25;;;;;;;;5080933;28;10624;-77
2023/10/07 11:25:04;;;;;;;;;5.00;5.00;;;;;;;;5080420;28;9686;-78
2023/10/07 11:27:30;;;;;;;;;9.00;5.00;;;;;;;;5081867;28;9656;-76
2023/10/07 11:30:01;;;;;;;;;6.00;5.00;;;;;;;;5083104;28;9472;-75
2023/10/07 11:32:31;;;;;;;;;6.33;4.67;;;;;;;;5083103;28;9791;-77
2023/10/07 11:34:57;;;;;;;;;5.67;3.67;;;;;;;;5081158;28;9348;-77
2023/10/07 11:37:23;;;;;;;;;6.67;4.33;;;;;;;;5077363;28;9500;-73
2023/10/07 11:39:48;;;;;;;;;7.00;6.00;;;;;;;;5081897;28;9302;-74
2023/10/07 11:42:18;;;;;;;;;5.67;4.00;;;;;;;;5090305;28;8792;-73
2023/10/07 11:44:47;;;;;;;;;4.67;4.67;;;;;;;;5083088;28;8789;-75
2023/10/07 11:47:19;;;;;;;;;7.00;5.67;;;;;;;;5083205;28;9386;-75
2023/10/07 11:49:46;;;;;;;;;6.00;4.33;;;;;;;;5087800;28;9350;-76
2023/10/07 11:52:12;;;;;;;;;4.00;4.00;;;;;;;;5080285;28;9402;-76
2023/10/07 11:54:40;;;;;;;;;3.00;3.00;;;;;;;;5077474;28;9349;-78
2023/10/07 11:57:05;;;;;;;;;3.00;3.00;;;;;;;;5075085;28;8815;-75
2023/10/07 11:59:34;;;;;;;;;5.00;3.33;;;;;;;;5081927;28;9126;-75
2023/10/07 12:02:09;;;;;;;;;5.67;5.67;;;;;;;;5080487;28;8745;-78
2023/10/07 12:04:38;;;;;;;;;5.00;4.00;;;;;;;;5080734;28;9219;-78
2023/10/07 12:07:03;;;;;;;;;5.00;5.00;;;;;;;;5077849;28;9291;-74
2023/10/07 12:09:29;;;;;;;;;7.00;4.67;;;;;;;;5092202;28;9276;-75
2023/10/07 12:11:54;;;;;;;;;5.67;4.00;;;;;;;;5082519;28;8932;-77
2023/10/07 12:14:20;;;;;;;;;4.67;3.67;;;;;;;;5075050;28;8791;-76
2023/10/07 12:16:45;;;;;;;;;6.00;4.00;;;;;;;;5082114;28;8806;-76
2023/10/07 12:19:11;;;;;;;;;7.00;6.00;;;;;;;;5083512;28;9298;-77
2023/10/07 12:21:37;;;;;;;;;3.33;3.33;;;;;;;;5077434;28;8854;-76
2023/10/07 12:24:02;;;;;;;;;6.33;5.00;;;;;;;;5077055;28;9790;-76
2023/10/07 12:26:27;;;;;;;;;6.00;5.00;;;;;;;;5078690;28;9158;-75
2023/10/07 12:28:54;;;;;;;;;4.00;4.00;;;;;;;;5072225;28;8817;-77
2023/10/07 12:31:23;;;;;;;;;5.00;5.00;;;;;;;;5074857;28;8758;-77
2023/10/07 12:33:50;;;;;;;;;5.67;4.00;;;;;;;;5079594;28;9160;-76
2023/10/07 12:36:16;;;;;;;;;4.00;3.00;;;;;;;;5087448;28;9194;-76
2023/10/07 12:38:41;;;;;;;;;5.33;4.33;;;;;;;;5072739;28;9219;-77
2023/10/07 12:41:07;;;;;;;;;3.33;3.33;;;;;;;;5087318;28;8792;-77
2023/10/07 12:43:37;;;;;;;;;5.00;3.00;;;;;;;;5080822;28;8933;-77
2023/10/07 12:46:03;;;;;;;;;4.33;4.33;;;;;;;;5083926;28;8778;-78
2023/10/07 12:48:29;;;;;;;;;5.67;3.00;;;;;;;;5088831;28;9141;-77
2023/10/07 12:50:54;;;;;;;;;4.67;3.67;;;;;;;;5090432;28;8848;-75
2023/10/07 12:53:19;;;;;;;;;2.67;2.67;;;;;;;;5085090;28;8905;-77
2023/10/07 12:55:47;;;;;;;;;4.33;4.33;;;;;;;;5084619;28;8804;-76
2023/10/07 12:58:16;;;;;;;;;2.75;2.75;;;;;;;;5085794;28;8749;-77
2023/10/07 13:00:42;;;;;;;;;3.75;3.00;;;;;;;;5071999;28;8753;-78
2023/10/07 13:03:07;;;;;;;;;5.50;3.25;;;;;;;;5072435;28;8774;-78
2023/10/07 13:05:37;;;;;;;;;4.33;3.00;;;;;;;;5079544;28;8802;-78
2023/10/07 13:08:03;;;;;;;;;2.50;2.25;;;;;;;;5077784;28;8966;-78
2023/10/07 13:10:28;;;;;;;;;5.00;2.67;;;;;;;;5087633;28;8869;-78
2023/10/07 13:12:58;;;;;;;;;2.33;2.33;;;;;;;;5083352;28;8809;-77
2023/10/07 13:15:30;;;;;;;;;3.00;2.75;;;;;;;;5093082;28;8747;-78
2023/10/07 13:17:58;;;;;;;;;3.25;3.25;;;;;;;;5089390;28;8849;-77
2023/10/07 13:20:24;;;;;;;;;4.75;4.00;;;;;;;;5070091;28;11689;-77
2023/10/07 13:22:49;;;;;;;;;4.00;2.00;;;;;;;;5090704;28;8825;-78
2023/10/07 13:25:19;;;;;;;;;2.00;2.00;;;;;;;;5088395;28;8820;-76
2023/10/07 13:27:46;;;;;;;;;3.25;3.25;;;;;;;;5088620;28;8878;-76
2023/10/07 13:30:13;;;;;;;;;5.25;4.00;;;;;;;;5077628;28;8739;-78
2023/10/07 13:32:40;;;;;;;;;2.75;2.00;;;;;;;;5078176;28;8752;-79
2023/10/07 13:35:08;;;;;;;;;3.75;2.50;;;;;;;;5083046;28;8749;-78
2023/10/07 13:37:34;;;;;;;;;3.75;2.75;;;;;;;;5090623;28;8745;-78
2023/10/07 13:39:59;;;;;;;;;3.00;3.00;;;;;;;;5083676;28;8850;-78
2023/10/07 13:42:24;;;;;;;;;2.00;1.67;;;;;;;;5072835;28;9583;-79
2023/10/07 13:44:50;;;;;;;;;3.33;2.00;;;;;;;;5094641;28;8784;-79
2023/10/07 13:47:17;;;;;;;;;2.67;2.00;;;;;;;;5089696;28;8933;-78
2023/10/07 13:49:45;;;;;;;;;1.25;1.25;;;;;;;;5081681;28;10039;-78
2023/10/07 13:52:10;;;;;;;;;3.00;3.00;;;;;;;;5086293;28;8737;-78
2023/10/07 13:54:38;;;;;;;;;3.67;3.67;;;;;;;;5088947;28;8829;-79
2023/10/07 13:57:09;;;;;;;;;3.00;2.25;;;;;;;;5087996;28;8753;-79
2023/10/07 13:59:36;;;;;;;;;3.00;2.75;;;;;;;;5071032;28;10263;-80
2023/10/07 14:02:01;;;;;;;;;1.00;1.00;;;;;;;;5082258;28;8802;-79
2023/10/07 14:04:26;;;;;;;;;2.00;2.00;;;;;;;;5082490;28;8806;-79
2023/10/07 14:06:56;;;;;;;;;6.67;4.00;;;;;;;;5090272;28;8788;-79
2023/10/07 14:09:24;;;;;;;;;4.00;3.00;;;;;;;;5089704;28;8792;-79
2023/10/07 14:11:54;;;;;;;;;2.25;2.00;;;;;;;;5091706;28;8807;-79
2023/10/07 14:14:19;;;;;;;;;3.50;2.00;;;;;;;;5095200;28;8804;-79
2023/10/07 14:16:45;;;;;;;;;3.33;2.00;;;;;;;;5083852;28;8860;-79
2023/10/07 14:19:11;;;;;;;;;1.00;1.00;;;;;;;;5091631;28;8779;-80
2023/10/07 14:21:38;;;;;;;;;1.00;1.00;;;;;;;;5068893;28;8829;-79
2023/10/07 14:24:03;;;;;;;;;1.75;1.75;;;;;;;;5096614;28;8818;-79
2023/10/07 14:26:35;;;;;;;;;3.67;2.00;;;;;;;;5095790;28;8827;-78
2023/10/07 14:29:06;;;;;;;;;1.50;1.50;;;;;;;;5088536;28;8728;-79
2023/10/07 14:31:36;;;;;;;;;6.00;4.25;;;;;;;;5084881;28;8715;-79
2023/10/07 14:34:04;;;;;;;;;4.00;3.00;;;;;;;;5080294;28;8797;-78
2023/10/07 14:36:29;;;;;;;;;2.00;1.50;;;;;;;;5085115;28;8755;-77
2023/10/07 14:38:55;;;;;;;;;2.67;2.33;;;;;;;;5085089;28;8786;-83
2023/10/07 14:41:20;;;;;;;;;3.67;1.67;;;;;;;;5065982;28;8798;-87
2023/10/07 14:43:46;;;;;;;;;3.00;3.00;;;;;;;;5074599;28;8801;-84
2023/10/07 14:46:11;;;;;;;;;2.67;2.33;;;;;;;;5075144;28;8865;-82
2023/10/07 14:48:40;;;;;;;;;5.33;3.00;;;;;;;;5075454;28;9542;-84
2023/10/07 14:51:06;;;;;;;;;3.00;2.50;;;;;;;;5063014;28;8843;-77
2023/10/07 14:53:33;;;;;;;;;2.33;1.33;;;;;;;;5076131;28;8827;-85
2023/10/07 14:55:59;;;;;;;;;2.25;1.25;;;;;;;;5084865;28;11374;-85
2023/10/07 14:58:29;;;;;;;;;2.00;2.00;;;;;;;;5080998;28;8823;-85
2023/10/07 15:00:55;;;;;;;;;1.75;1.75;;;;;;;;5085351;28;8927;-85
2023/10/07 15:03:21;;;;;;;;;3.25;2.25;;;;;;;;5094568;28;8798;-85
2023/10/07 15:05:48;;;;;;;;;2.00;2.00;;;;;;;;5089025;28;8771;-85
2023/10/07 15:08:16;;;;;;;;;3.00;2.25;;;;;;;;5075184;28;11436;-85
2023/10/07 15:10:46;;;;;;;;;3.50;2.50;;;;;;;;5076695;28;8798;-86
2023/10/07 15:13:11;;;;;;;;;4.00;2.00;;;;;;;;5085929;28;8822;-86
2023/10/07 15:15:40;;;;;;;;;1.00;1.00;;;;;;;;5069870;28;8810;-84
2023/10/07 15:18:06;;;;;;;;;1.25;1.25;;;;;;;;5082085;28;8782;-85
2023/10/07 15:20:35;;;;;;;;;3.67;3.00;;;;;;;;5089373;28;8835;-85
2023/10/07 15:23:01;;;;;;;;;3.50;2.25;;;;;;;;5077272;28;8784;-85
2023/10/07 15:25:27;;;;;;;;;2.00;2.00;;;;;;;;5085045;28;8753;-85